createdAt,value
2023-03-21T00:01:04.022Z,29.30
2023-03-21T00:04:06.739Z,27.77
2023-03-21T00:07:09.514Z,27.45
2023-03-21T00:10:18.064Z,26.77
2023-03-21T00:13:26.545Z,31.23
2023-03-21T00:16:38.589Z,31.52
2023-03-21T00:19:45.032Z,40.97
2023-03-21T00:22:48.371Z,45.15
2023-03-21T00:25:51.004Z,47.47
2023-03-21T00:28:54.164Z,41.00
2023-03-21T00:31:56.843Z,46.85
2023-03-21T00:35:21.428Z,43.17
2023-03-21T00:38:24.633Z,45.53
2023-03-21T00:41:41.449Z,41.90
2023-03-21T00:44:45.602Z,47.33
2023-03-21T00:47:48.616Z,50.50
2023-03-21T00:50:52.878Z,46.43
2023-03-21T00:53:58.425Z,43.47
2023-03-21T00:57:04.301Z,40.08
2023-03-21T01:00:10.324Z,48.47
2023-03-21T01:03:24.268Z,46.90
2023-03-21T01:06:27.856Z,47.93
2023-03-21T01:09:30.583Z,45.53
2023-03-21T01:12:33.692Z,57.58
2023-03-21T01:15:44.823Z,62.13
2023-03-21T01:18:47.742Z,55.72
2023-03-21T01:21:50.425Z,51.80
2023-03-21T01:24:58.575Z,40.90
2023-03-21T01:28:04.223Z,36.88
2023-03-21T01:31:07.022Z,32.15
2023-03-21T01:34:09.705Z,37.70
2023-03-21T01:37:12.532Z,33.40
2023-03-21T01:40:26.380Z,29.33
2023-03-21T01:43:37.204Z,32.90
2023-03-21T01:46:54.358Z,40.03
2023-03-21T01:50:22.357Z,35.10
2023-03-21T01:53:39.970Z,42.43
2023-03-21T01:56:47.127Z,50.88
2023-03-21T01:59:54.696Z,48.92
2023-03-21T02:03:35.303Z,41.45
2023-03-21T02:06:59.809Z,38.90
2023-03-21T02:10:11.583Z,39.07
2023-03-21T02:13:18.561Z,31.85
2023-03-21T02:16:43.506Z,34.15
2023-03-21T02:19:56.066Z,32.28
2023-03-21T02:23:19.570Z,36.00
2023-03-21T02:26:42.330Z,28.57
2023-03-21T02:30:20.227Z,31.75
2023-03-21T02:33:52.826Z,30.08
2023-03-21T02:36:58.167Z,31.50
2023-03-21T02:40:11.215Z,30.88
2023-03-21T02:43:23.767Z,27.77
2023-03-21T02:46:49.191Z,26.10
2023-03-21T02:50:30.105Z,25.40
2023-03-21T02:53:36.041Z,23.95
2023-03-21T02:56:43.214Z,21.45
2023-03-21T02:59:55.489Z,22.93
2023-03-21T03:03:10.505Z,23.30
2023-03-21T03:06:21.831Z,24.45
2023-03-21T03:09:38.611Z,22.60
2023-03-21T03:12:56.629Z,23.05
2023-03-21T03:16:03.268Z,25.63
2023-03-21T03:19:10.788Z,23.73
2023-03-21T03:22:17.584Z,26.85
2023-03-21T03:25:39.496Z,26.55
2023-03-21T03:28:48.250Z,25.92
2023-03-21T03:31:58.290Z,25.30
2023-03-21T03:35:07.046Z,23.23
2023-03-21T03:38:10.974Z,30.98
2023-03-21T03:41:19.868Z,39.17
2023-03-21T03:44:28.602Z,45.92
2023-03-21T03:47:50.714Z,38.67
2023-03-21T03:51:06.788Z,33.58
2023-03-21T03:54:41.680Z,30.73
2023-03-21T03:57:44.941Z,30.10
2023-03-21T04:00:48.144Z,34.78
2023-03-21T04:03:58.595Z,37.17
2023-03-21T04:07:10.132Z,32.85
2023-03-21T04:10:14.903Z,40.60
2023-03-21T04:13:18.042Z,41.08
2023-03-21T04:16:32.837Z,39.83
2023-03-21T04:19:37.193Z,58.47
2023-03-21T04:22:41.167Z,35.72
2023-03-21T04:25:55.894Z,29.90
2023-03-21T04:29:06.000Z,28.58
2023-03-21T04:32:34.047Z,26.52
2023-03-21T04:35:46.139Z,38.83
2023-03-21T04:38:51.164Z,44.08
2023-03-21T04:41:53.990Z,40.50
2023-03-21T04:44:57.596Z,39.70
2023-03-21T04:48:00.476Z,146.38
2023-03-21T04:51:03.191Z,113.30
2023-03-21T04:57:09.636Z,41.58
2023-03-21T05:00:15.884Z,38.53
2023-03-21T05:03:21.570Z,40.25
2023-03-21T05:06:24.599Z,34.73
2023-03-21T05:09:28.092Z,29.25
2023-03-21T05:12:30.900Z,26.65
2023-03-21T05:15:33.909Z,25.05
2023-03-21T05:18:38.904Z,31.70
2023-03-21T05:21:49.099Z,42.93
2023-03-21T05:25:04.099Z,43.38
2023-03-21T05:28:23.021Z,59.92
2023-03-21T05:31:26.080Z,37.85
2023-03-21T05:34:39.857Z,33.80
2023-03-21T05:37:42.672Z,30.30
2023-03-21T05:40:49.451Z,24.25
2023-03-21T05:43:53.244Z,33.00
2023-03-21T05:46:55.941Z,36.40
2023-03-21T05:50:07.073Z,34.97
2023-03-21T05:53:10.921Z,25.63
2023-03-21T05:56:13.808Z,26.38
2023-03-21T05:59:36.789Z,55.03
2023-03-21T06:02:40.155Z,33.65
2023-03-21T06:05:48.259Z,45.90
2023-03-21T06:08:57.031Z,25.93
2023-03-21T06:12:00.248Z,35.15
2023-03-21T06:15:08.953Z,30.90
2023-03-21T06:18:26.078Z,38.33
2023-03-21T06:21:41.371Z,31.20
2023-03-21T06:24:44.799Z,32.00
2023-03-21T06:27:48.397Z,24.27
2023-03-21T06:30:51.226Z,25.63
2023-03-21T06:34:00.269Z,24.60
2023-03-21T06:37:04.190Z,27.85
2023-03-21T06:40:09.792Z,25.37
2023-03-21T06:43:12.992Z,26.55
2023-03-21T06:46:15.990Z,28.33
2023-03-21T06:49:20.240Z,27.83
2023-03-21T06:52:22.970Z,24.75
2023-03-21T06:55:29.473Z,23.17
2023-03-21T06:58:35.573Z,25.88
2023-03-21T07:01:39.497Z,27.52
2023-03-21T07:04:43.600Z,25.77
2023-03-21T07:07:52.448Z,29.73
2023-03-21T07:10:56.906Z,24.40
2023-03-21T07:13:59.884Z,27.27
2023-03-21T07:17:03.228Z,28.95
2023-03-21T07:20:08.383Z,24.73
2023-03-21T07:23:12.324Z,36.17
2023-03-21T07:26:16.243Z,26.37
2023-03-21T07:29:21.583Z,22.13
2023-03-21T07:32:30.099Z,19.55
2023-03-21T07:35:33.179Z,19.27
2023-03-21T07:38:36.118Z,20.08
2023-03-21T07:41:39.117Z,20.63
2023-03-21T07:45:07.959Z,21.65
2023-03-21T07:48:13.180Z,20.02
2023-03-21T07:51:16.176Z,20.20
2023-03-21T07:54:22.209Z,47.10
2023-03-21T07:57:25.027Z,20.83
2023-03-21T08:00:27.895Z,22.90
2023-03-21T08:03:32.843Z,18.05
2023-03-21T08:06:35.972Z,14.88
2023-03-21T08:09:39.140Z,26.08
2023-03-21T08:12:42.000Z,14.93
2023-03-21T08:15:44.671Z,15.30
2023-03-21T08:18:47.571Z,16.23
2023-03-21T08:21:51.111Z,17.17
2023-03-21T08:24:53.691Z,16.25
2023-03-21T08:27:56.712Z,14.07
2023-03-21T08:30:59.522Z,14.00
2023-03-21T08:34:02.317Z,16.58
2023-03-21T08:37:08.681Z,17.35
2023-03-21T08:40:14.576Z,15.00
2023-03-21T08:43:17.315Z,14.60
2023-03-21T08:46:20.113Z,15.27
2023-03-21T08:49:23.007Z,14.40
2023-03-21T08:52:27.283Z,15.48
2023-03-21T08:55:31.752Z,16.73
2023-03-21T08:58:34.390Z,17.50
2023-03-21T09:01:37.726Z,18.65
2023-03-21T09:04:40.960Z,19.15
2023-03-21T09:07:44.181Z,15.73
2023-03-21T09:10:46.964Z,19.85
2023-03-21T09:13:49.741Z,17.40
2023-03-21T09:16:53.045Z,18.25
2023-03-21T09:19:56.720Z,19.15
2023-03-21T09:22:59.966Z,19.45
2023-03-21T09:26:02.668Z,18.23
2023-03-21T09:29:06.150Z,17.53
2023-03-21T09:32:09.405Z,21.20
2023-03-21T09:35:12.930Z,19.85
2023-03-21T09:38:16.110Z,21.17
2023-03-21T09:41:28.098Z,15.30
2023-03-21T09:44:53.086Z,18.47
2023-03-21T09:47:57.173Z,19.23
2023-03-21T09:51:01.234Z,13.98
2023-03-21T09:54:08.797Z,17.50
2023-03-21T09:57:32.636Z,16.42
2023-03-21T10:00:40.269Z,17.03
2023-03-21T10:03:43.986Z,20.63
2023-03-21T10:06:55.529Z,15.13
2023-03-21T10:09:59.886Z,16.10
2023-03-21T10:13:02.727Z,13.45
2023-03-21T10:16:34.591Z,18.63
2023-03-21T10:19:37.345Z,17.92
2023-03-21T10:22:40.365Z,14.77
2023-03-21T10:25:47.790Z,16.60
2023-03-21T10:28:53.383Z,13.30
2023-03-21T10:31:56.907Z,15.10
2023-03-21T10:35:01.593Z,15.27
2023-03-21T10:38:06.428Z,13.98
2023-03-21T10:41:11.537Z,14.25
2023-03-21T10:44:17.622Z,16.55
2023-03-21T10:47:31.644Z,16.10
2023-03-21T10:50:37.201Z,16.60
2023-03-21T10:53:42.154Z,23.38
2023-03-21T10:57:12.057Z,16.25
2023-03-21T11:00:21.838Z,16.85
2023-03-21T11:03:31.634Z,18.13
2023-03-21T11:06:38.890Z,20.45
2023-03-21T11:09:56.353Z,14.80
2023-03-21T11:13:02.809Z,15.30
2023-03-21T11:16:07.091Z,14.13
2023-03-21T11:19:20.942Z,13.37
2023-03-21T11:22:28.172Z,16.83
2023-03-21T11:25:42.357Z,13.35
2023-03-21T11:28:46.717Z,35.63
2023-03-21T11:31:49.556Z,14.68
2023-03-21T11:35:04.938Z,12.17
2023-03-21T11:38:24.545Z,22.42
2023-03-21T11:41:32.754Z,13.20
2023-03-21T11:44:44.103Z,12.82
2023-03-21T11:47:49.492Z,12.75
2023-03-21T11:50:59.345Z,14.20
2023-03-21T11:54:11.286Z,18.10
2023-03-21T11:57:36.246Z,18.83
2023-03-21T12:00:48.669Z,12.55
2023-03-21T12:03:59.450Z,14.75
2023-03-21T12:07:11.052Z,12.10
2023-03-21T12:10:33.002Z,13.60
2023-03-21T12:14:03.976Z,11.80
2023-03-21T12:17:27.176Z,11.05
2023-03-21T12:20:50.019Z,12.57
2023-03-21T12:24:12.826Z,12.67
2023-03-21T12:27:53.070Z,14.27
2023-03-21T12:31:12.321Z,12.85
2023-03-21T12:34:26.965Z,13.77
2023-03-21T12:37:47.688Z,12.15
2023-03-21T12:41:03.222Z,11.17
2023-03-21T12:44:13.974Z,13.77
2023-03-21T12:47:29.507Z,13.27
2023-03-21T12:50:38.046Z,12.15
2023-03-21T12:53:44.450Z,11.13
2023-03-21T12:56:55.413Z,15.20
2023-03-21T13:00:10.820Z,11.30
2023-03-21T13:03:37.399Z,10.70
2023-03-21T13:06:43.700Z,11.90
2023-03-21T13:09:46.953Z,11.30
2023-03-21T13:12:52.349Z,16.40
2023-03-21T13:16:42.870Z,11.55
2023-03-21T13:19:51.635Z,12.23
2023-03-21T13:22:54.269Z,11.35
2023-03-21T13:25:57.970Z,12.93
2023-03-21T13:29:00.741Z,10.47
2023-03-21T13:32:16.676Z,9.88
2023-03-21T13:35:21.086Z,7.22
2023-03-21T13:38:28.851Z,7.13
2023-03-21T13:41:43.555Z,7.60
2023-03-21T13:44:53.796Z,8.53
2023-03-21T13:48:01.949Z,6.85
2023-03-21T13:51:06.458Z,8.80
2023-03-21T13:54:09.050Z,7.50
2023-03-21T13:57:41.859Z,8.45
2023-03-21T14:00:44.527Z,9.40
2023-03-21T14:03:47.569Z,8.93
2023-03-21T14:06:56.618Z,11.55
2023-03-21T14:10:09.551Z,10.73
2023-03-21T14:13:17.056Z,9.00
2023-03-21T14:16:21.076Z,9.63
2023-03-21T14:19:30.996Z,11.40
2023-03-21T14:22:33.613Z,11.13
2023-03-21T14:25:46.720Z,13.52
2023-03-21T14:28:51.758Z,12.63
2023-03-21T14:31:59.972Z,10.47
2023-03-21T14:35:03.278Z,13.90
2023-03-21T14:38:09.048Z,11.48
2023-03-21T14:41:32.679Z,7.47
2023-03-21T14:44:56.132Z,9.13
2023-03-21T14:48:13.593Z,12.20
2023-03-21T14:51:16.284Z,10.15
2023-03-21T14:54:20.093Z,8.50
2023-03-21T14:57:29.131Z,9.55
2023-03-21T15:00:32.922Z,11.80
2023-03-21T15:03:35.815Z,12.13
2023-03-21T15:06:56.222Z,19.08
2023-03-21T15:10:03.834Z,6.97
2023-03-21T15:13:19.016Z,9.05
2023-03-21T15:16:22.494Z,6.28
2023-03-21T15:19:37.582Z,5.83
2023-03-21T15:22:42.746Z,10.75
2023-03-21T15:25:45.752Z,7.45
2023-03-21T15:28:50.595Z,9.55
2023-03-21T15:31:53.620Z,11.90
2023-03-21T15:35:06.114Z,7.07
2023-03-21T15:38:42.832Z,7.53
2023-03-21T15:42:06.120Z,6.43
2023-03-21T15:45:17.601Z,6.68
2023-03-21T15:48:28.962Z,7.38
2023-03-21T15:51:32.174Z,8.10
2023-03-21T15:54:41.700Z,11.85
2023-03-21T15:57:47.557Z,9.48
2023-03-21T16:00:58.106Z,7.95
2023-03-21T16:04:10.047Z,8.15
2023-03-21T16:07:17.307Z,8.73
2023-03-21T16:10:33.795Z,10.45
2023-03-21T16:13:36.374Z,10.32
2023-03-21T16:16:39.143Z,8.85
2023-03-21T16:19:43.456Z,8.60
2023-03-21T16:22:47.571Z,15.90
2023-03-21T16:25:56.034Z,18.40
2023-03-21T16:28:59.286Z,26.67
2023-03-21T16:32:06.427Z,12.27
2023-03-21T16:35:09.597Z,8.38
2023-03-21T16:38:12.930Z,10.07
2023-03-21T16:41:16.495Z,11.10
2023-03-21T16:44:20.358Z,7.75
2023-03-21T16:47:26.018Z,8.85
2023-03-21T16:50:37.728Z,11.57
2023-03-21T16:53:40.768Z,19.50
2023-03-21T16:56:46.963Z,19.73
2023-03-21T16:59:49.571Z,12.93
2023-03-21T17:02:54.855Z,17.50
2023-03-21T17:05:57.576Z,21.73
2023-03-21T17:09:00.719Z,14.33
2023-03-21T17:12:03.541Z,13.55
2023-03-21T17:15:06.792Z,14.38
2023-03-21T17:18:10.767Z,19.27
2023-03-21T17:21:15.676Z,20.20
2023-03-21T17:24:18.377Z,20.20
2023-03-21T17:27:21.165Z,28.33
2023-03-21T17:30:30.987Z,17.88
2023-03-21T17:33:33.602Z,19.70
2023-03-21T17:36:38.619Z,23.48
2023-03-21T17:39:43.025Z,20.83
2023-03-21T17:42:46.435Z,16.13
2023-03-21T17:45:49.260Z,14.25
2023-03-21T17:48:52.331Z,16.33
2023-03-21T17:51:55.886Z,16.88
2023-03-21T17:54:58.659Z,19.60
2023-03-21T17:58:01.790Z,21.70
2023-03-21T18:01:05.017Z,13.93
2023-03-21T18:04:08.292Z,14.73
2023-03-21T18:07:24.570Z,13.70
2023-03-21T18:10:40.434Z,12.57
2023-03-21T18:13:44.745Z,24.35
2023-03-21T18:16:48.179Z,34.97
2023-03-21T18:19:51.090Z,26.17
2023-03-21T18:22:55.144Z,15.35
2023-03-21T18:25:58.543Z,13.87
2023-03-21T18:32:26.496Z,10.88
2023-03-21T18:35:30.015Z,13.02
2023-03-21T18:38:33.620Z,14.43
2023-03-21T18:41:36.757Z,13.53
2023-03-21T18:44:45.456Z,14.02
2023-03-21T18:47:48.969Z,13.48
2023-03-21T18:50:52.147Z,14.95
2023-03-21T18:53:55.165Z,16.63
2023-03-21T18:57:33.765Z,13.27
2023-03-21T19:00:23.047Z,10.40
2023-03-21T19:03:35.833Z,11.57
2023-03-21T19:06:41.452Z,10.80
2023-03-21T19:10:05.317Z,10.75
2023-03-21T19:13:08.488Z,10.27
2023-03-21T19:16:11.799Z,8.57
2023-03-21T19:19:18.645Z,10.45
2023-03-21T19:22:21.441Z,9.70
2023-03-21T19:25:24.403Z,8.40
2023-03-21T19:28:28.547Z,10.17
2023-03-21T19:31:32.084Z,8.35
2023-03-21T19:34:36.872Z,7.75
2023-03-21T19:37:39.792Z,10.75
2023-03-21T19:40:43.875Z,9.02
2023-03-21T19:43:54.139Z,12.17
2023-03-21T19:46:57.565Z,9.77
2023-03-21T19:50:47.701Z,6.82
2023-03-21T19:53:23.494Z,8.48
2023-03-21T19:56:27.630Z,6.43
2023-03-21T19:59:32.182Z,11.53
2023-03-21T20:02:36.769Z,9.85
2023-03-21T20:05:39.949Z,11.73
2023-03-21T20:09:24.006Z,6.53
2023-03-21T20:12:07.664Z,8.30
2023-03-21T20:15:17.778Z,8.57
2023-03-21T20:18:24.139Z,8.77
2023-03-21T20:21:34.860Z,6.70
2023-03-21T20:24:43.057Z,8.13
2023-03-21T20:27:46.008Z,10.45
2023-03-21T20:30:51.351Z,8.77
2023-03-21T20:33:54.297Z,8.10
2023-03-21T20:36:58.466Z,7.43
2023-03-21T20:40:01.562Z,7.65
2023-03-21T20:43:33.435Z,8.02
2023-03-21T20:46:28.546Z,10.60
2023-03-21T20:49:32.333Z,7.47
2023-03-21T20:53:05.615Z,9.45
2023-03-21T20:56:02.451Z,8.05
2023-03-21T20:59:16.814Z,9.80
2023-03-21T21:02:24.154Z,11.47
2023-03-21T21:05:31.451Z,7.18
2023-03-21T21:08:36.767Z,8.00
2023-03-21T21:12:05.508Z,9.07
2023-03-21T21:15:02.784Z,8.55
2023-03-21T21:18:07.407Z,7.07
2023-03-21T21:21:10.871Z,8.30
2023-03-21T21:24:14.752Z,8.60
2023-03-21T21:27:17.715Z,7.40
2023-03-21T21:30:20.666Z,8.40
2023-03-21T21:33:23.265Z,8.57
2023-03-21T21:36:26.090Z,7.43
2023-03-21T21:39:31.540Z,8.02
2023-03-21T21:42:34.274Z,7.97
2023-03-21T21:45:36.979Z,9.98
2023-03-21T21:48:41.105Z,10.73
2023-03-21T21:51:47.727Z,10.98
2023-03-21T21:54:51.181Z,14.38
2023-03-21T21:57:58.063Z,10.32
2023-03-21T22:01:01.957Z,9.98
2023-03-21T22:04:08.450Z,10.30
2023-03-21T22:07:14.435Z,8.50
2023-03-21T22:10:17.594Z,7.50
2023-03-21T22:13:20.479Z,7.45
2023-03-21T22:16:23.192Z,9.65
2023-03-21T22:19:27.721Z,12.63
2023-03-21T22:22:30.457Z,8.63
2023-03-21T22:25:36.420Z,9.65
2023-03-21T22:28:42.194Z,9.40
2023-03-21T22:31:47.390Z,8.95
2023-03-21T22:34:49.959Z,9.37
2023-03-21T22:37:52.589Z,7.43
2023-03-21T22:40:59.497Z,9.18
2023-03-21T22:44:02.281Z,11.73
2023-03-21T22:47:07.290Z,11.13
2023-03-21T22:50:10.329Z,11.57
2023-03-21T22:53:13.361Z,9.80
2023-03-21T22:56:15.949Z,11.77
2023-03-21T22:59:18.724Z,11.57
2023-03-21T23:02:21.552Z,11.30
2023-03-21T23:05:24.606Z,9.30
2023-03-21T23:08:27.779Z,11.48
2023-03-21T23:11:30.541Z,12.90
2023-03-21T23:14:33.254Z,13.90
2023-03-21T23:17:36.046Z,12.07
2023-03-21T23:20:38.917Z,13.13
2023-03-21T23:23:43.842Z,12.60
2023-03-21T23:26:46.674Z,14.07
2023-03-21T23:29:49.429Z,12.27
2023-03-21T23:32:52.512Z,13.32
2023-03-21T23:36:11.727Z,11.57
2023-03-21T23:39:14.776Z,14.50
2023-03-21T23:42:18.861Z,12.13
2023-03-21T23:45:21.707Z,14.93
2023-03-21T23:48:25.005Z,14.45
2023-03-21T23:51:27.708Z,15.63
2023-03-21T23:54:30.480Z,13.70
2023-03-21T23:57:33.216Z,15.93
